sensor_id;sensor_type;location;lat;lon;timestamp;temperature;humidity
19552;DHT22;9921;47.186;9.778;2023-04-01T00:02:03;8.40;99.90
19552;DHT22;9921;47.186;9.778;2023-04-01T00:04:30;8.40;99.90
19552;DHT22;9921;47.186;9.778;2023-04-01T00:06:57;8.50;99.90
19552;DHT22;9921;47.186;9.778;2023-04-01T00:09:25;8.60;99.90
19552;DHT22;9921;47.186;9.778;2023-04-01T00:11:51;8.60;99.90
19552;DHT22;9921;47.186;9.778;2023-04-01T00:14:20;8.60;99.90
19552;DHT22;9921;47.186;9.778;2023-04-01T00:16:47;8.70;99.90
19552;DHT22;9921;47.186;9.778;2023-04-01T00:19:14;8.60;99.90
19552;DHT22;9921;47.186;9.778;2023-04-01T00:21:41;8.50;99.90
19552;DHT22;9921;47.186;9.778;2023-04-01T00:24:08;8.50;99.90
19552;DHT22;9921;47.186;9.778;2023-04-01T00:26:35;8.50;99.90
19552;DHT22;9921;47.186;9.778;2023-04-01T00:29:02;8.40;99.90
19552;DHT22;9921;47.186;9.778;2023-04-01T00:31:30;8.20;99.90
19552;DHT22;9921;47.186;9.778;2023-04-01T00:33:57;8.00;99.90
19552;DHT22;9921;47.186;9.778;2023-04-01T00:36:24;8.00;99.90
19552;DHT22;9921;47.186;9.778;2023-04-01T00:38:51;8.00;99.90
19552;DHT22;9921;47.186;9.778;2023-04-01T00:41:19;7.90;99.90
19552;DHT22;9921;47.186;9.778;2023-04-01T00:43:49;7.90;99.90
19552;DHT22;9921;47.186;9.778;2023-04-01T00:46:16;7.80;99.90
19552;DHT22;9921;47.186;9.778;2023-04-01T00:48:47;7.80;99.90
19552;DHT22;9921;47.186;9.778;2023-04-01T00:51:17;7.90;99.90
19552;DHT22;9921;47.186;9.778;2023-04-01T00:53:47;8.00;99.90
19552;DHT22;9921;47.186;9.778;2023-04-01T00:56:17;8.00;99.90
19552;DHT22;9921;47.186;9.778;2023-04-01T00:58:48;8.00;99.90
19552;DHT22;9921;47.186;9.778;2023-04-01T01:01:15;7.90;99.90
19552;DHT22;9921;47.186;9.778;2023-04-01T01:03:43;7.90;99.90
19552;DHT22;9921;47.186;9.778;2023-04-01T01:06:26;7.90;99.90
19552;DHT22;9921;47.186;9.778;2023-04-01T01:09:10;7.90;99.90
19552;DHT22;9921;47.186;9.778;2023-04-01T01:11:43;7.90;99.90
19552;DHT22;9921;47.186;9.778;2023-04-01T01:14:25;8.00;99.90
19552;DHT22;9921;47.186;9.778;2023-04-01T01:16:58;8.00;99.90
19552;DHT22;9921;47.186;9.778;2023-04-01T01:19:42;7.90;99.90
19552;DHT22;9921;47.186;9.778;2023-04-01T01:22:36;8.00;99.90
19552;DHT22;9921;47.186;9.778;2023-04-01T01:25:17;8.20;99.90
19552;DHT22;9921;47.186;9.778;2023-04-01T01:27:56;8.20;99.90
19552;DHT22;9921;47.186;9.778;2023-04-01T01:30:48;8.10;99.90
19552;DHT22;9921;47.186;9.778;2023-04-01T01:36:19;8.00;99.90
19552;DHT22;9921;47.186;9.778;2023-04-01T01:38:47;7.90;99.90
19552;DHT22;9921;47.186;9.778;2023-04-01T01:41:16;7.90;99.90
19552;DHT22;9921;47.186;9.778;2023-04-01T01:43:46;7.90;99.90
19552;DHT22;9921;47.186;9.778;2023-04-01T01:46:17;7.90;99.90
19552;DHT22;9921;47.186;9.778;2023-04-01T01:48:47;7.80;99.90
19552;DHT22;9921;47.186;9.778;2023-04-01T01:51:15;7.80;99.90
19552;DHT22;9921;47.186;9.778;2023-04-01T01:53:43;7.90;99.90
19552;DHT22;9921;47.186;9.778;2023-04-01T01:56:10;7.90;99.90
19552;DHT22;9921;47.186;9.778;2023-04-01T01:58:39;7.90;99.90
19552;DHT22;9921;47.186;9.778;2023-04-01T02:01:10;8.00;99.90
19552;DHT22;9921;47.186;9.778;2023-04-01T02:03:39;8.10;99.90
19552;DHT22;9921;47.186;9.778;2023-04-01T02:06:09;8.00;99.90
19552;DHT22;9921;47.186;9.778;2023-04-01T02:08:40;8.20;99.90
19552;DHT22;9921;47.186;9.778;2023-04-01T02:11:12;8.30;99.90
19552;DHT22;9921;47.186;9.778;2023-04-01T02:13:43;8.30;99.90
19552;DHT22;9921;47.186;9.778;2023-04-01T02:16:14;8.40;99.90
19552;DHT22;9921;47.186;9.778;2023-04-01T02:18:43;8.40;99.90
19552;DHT22;9921;47.186;9.778;2023-04-01T02:21:11;8.40;99.90
19552;DHT22;9921;47.186;9.778;2023-04-01T02:23:39;8.30;99.90
19552;DHT22;9921;47.186;9.778;2023-04-01T02:26:09;8.40;99.90
19552;DHT22;9921;47.186;9.778;2023-04-01T02:28:38;8.20;99.90
19552;DHT22;9921;47.186;9.778;2023-04-01T02:31:08;8.20;99.90
19552;DHT22;9921;47.186;9.778;2023-04-01T02:33:37;8.10;99.90
19552;DHT22;9921;47.186;9.778;2023-04-01T02:36:05;8.10;99.90
19552;DHT22;9921;47.186;9.778;2023-04-01T02:38:35;8.00;99.90
19552;DHT22;9921;47.186;9.778;2023-04-01T02:41:03;8.10;99.90
19552;DHT22;9921;47.186;9.778;2023-04-01T02:43:32;8.00;99.90
19552;DHT22;9921;47.186;9.778;2023-04-01T02:45:59;7.90;99.90
19552;DHT22;9921;47.186;9.778;2023-04-01T02:48:27;7.90;99.90
19552;DHT22;9921;47.186;9.778;2023-04-01T02:50:54;7.80;99.90
19552;DHT22;9921;47.186;9.778;2023-04-01T02:53:21;7.80;99.90
19552;DHT22;9921;47.186;9.778;2023-04-01T02:55:48;7.80;99.90
19552;DHT22;9921;47.186;9.778;2023-04-01T02:58:15;7.70;99.90
19552;DHT22;9921;47.186;9.778;2023-04-01T03:00:44;7.70;99.90
19552;DHT22;9921;47.186;9.778;2023-04-01T03:03:10;7.60;99.90
19552;DHT22;9921;47.186;9.778;2023-04-01T03:05:38;7.60;99.90
19552;DHT22;9921;47.186;9.778;2023-04-01T03:08:05;7.60;99.90
19552;DHT22;9921;47.186;9.778;2023-04-01T03:10:32;7.70;99.90
19552;DHT22;9921;47.186;9.778;2023-04-01T03:12:59;7.70;99.90
19552;DHT22;9921;47.186;9.778;2023-04-01T03:15:26;7.70;99.90
19552;DHT22;9921;47.186;9.778;2023-04-01T03:17:54;7.80;99.90
19552;DHT22;9921;47.186;9.778;2023-04-01T03:20:21;7.70;99.90
19552;DHT22;9921;47.186;9.778;2023-04-01T03:22:48;7.80;99.90
19552;DHT22;9921;47.186;9.778;2023-04-01T03:25:15;7.70;99.90
19552;DHT22;9921;47.186;9.778;2023-04-01T03:27:42;7.70;99.90
19552;DHT22;9921;47.186;9.778;2023-04-01T03:30:09;7.70;99.90
19552;DHT22;9921;47.186;9.778;2023-04-01T03:32:36;7.70;99.90
19552;DHT22;9921;47.186;9.778;2023-04-01T03:35:05;7.70;99.90
19552;DHT22;9921;47.186;9.778;2023-04-01T03:37:32;7.70;99.90
19552;DHT22;9921;47.186;9.778;2023-04-01T03:39:59;7.70;99.90
19552;DHT22;9921;47.186;9.778;2023-04-01T03:42:26;7.70;99.90
19552;DHT22;9921;47.186;9.778;2023-04-01T03:44:53;7.70;99.90
19552;DHT22;9921;47.186;9.778;2023-04-01T03:47:19;7.70;99.90
19552;DHT22;9921;47.186;9.778;2023-04-01T03:49:46;7.70;99.90
19552;DHT22;9921;47.186;9.778;2023-04-01T03:52:15;7.70;99.90
19552;DHT22;9921;47.186;9.778;2023-04-01T03:54:41;7.70;99.90
19552;DHT22;9921;47.186;9.778;2023-04-01T03:57:08;7.70;99.90
19552;DHT22;9921;47.186;9.778;2023-04-01T03:59:35;7.80;99.90
19552;DHT22;9921;47.186;9.778;2023-04-01T04:02:02;7.80;99.90
19552;DHT22;9921;47.186;9.778;2023-04-01T04:04:30;7.80;99.90
19552;DHT22;9921;47.186;9.778;2023-04-01T04:06:57;7.70;99.90
19552;DHT22;9921;47.186;9.778;2023-04-01T04:09:26;7.80;99.90
19552;DHT22;9921;47.186;9.778;2023-04-01T04:11:52;7.80;99.90
19552;DHT22;9921;47.186;9.778;2023-04-01T04:14:19;7.80;99.90
19552;DHT22;9921;47.186;9.778;2023-04-01T04:16:46;7.70;99.90
19552;DHT22;9921;47.186;9.778;2023-04-01T04:19:13;7.70;99.90
19552;DHT22;9921;47.186;9.778;2023-04-01T04:21:40;7.70;99.90
19552;DHT22;9921;47.186;9.778;2023-04-01T04:24:08;7.70;99.90
19552;DHT22;9921;47.186;9.778;2023-04-01T04:26:36;7.70;99.90
19552;DHT22;9921;47.186;9.778;2023-04-01T04:29:03;7.70;99.90
19552;DHT22;9921;47.186;9.778;2023-04-01T04:31:30;7.70;99.90
19552;DHT22;9921;47.186;9.778;2023-04-01T04:33:59;7.80;99.90
19552;DHT22;9921;47.186;9.778;2023-04-01T04:36:26;7.80;99.90
19552;DHT22;9921;47.186;9.778;2023-04-01T04:38:53;7.90;99.90
19552;DHT22;9921;47.186;9.778;2023-04-01T04:41:20;7.90;99.90
19552;DHT22;9921;47.186;9.778;2023-04-01T04:43:51;7.80;99.90
19552;DHT22;9921;47.186;9.778;2023-04-01T04:46:19;7.80;99.90
19552;DHT22;9921;47.186;9.778;2023-04-01T04:48:46;7.80;99.90
19552;DHT22;9921;47.186;9.778;2023-04-01T04:51:14;7.70;99.90
19552;DHT22;9921;47.186;9.778;2023-04-01T04:53:42;7.60;99.90
19552;DHT22;9921;47.186;9.778;2023-04-01T04:56:09;7.60;99.90
19552;DHT22;9921;47.186;9.778;2023-04-01T04:58:36;7.60;99.90
19552;DHT22;9921;47.186;9.778;2023-04-01T05:01:09;7.60;99.90
19552;DHT22;9921;47.186;9.778;2023-04-01T05:03:36;7.60;99.90
19552;DHT22;9921;47.186;9.778;2023-04-01T05:06:04;7.70;99.90
19552;DHT22;9921;47.186;9.778;2023-04-01T05:08:31;7.60;99.90
19552;DHT22;9921;47.186;9.778;2023-04-01T05:10:59;7.60;99.90
19552;DHT22;9921;47.186;9.778;2023-04-01T05:13:26;7.60;99.90
19552;DHT22;9921;47.186;9.778;2023-04-01T05:15:53;7.50;99.90
19552;DHT22;9921;47.186;9.778;2023-04-01T05:18:22;7.60;99.90
19552;DHT22;9921;47.186;9.778;2023-04-01T05:20:50;7.60;99.90
19552;DHT22;9921;47.186;9.778;2023-04-01T05:23:17;7.60;99.90
19552;DHT22;9921;47.186;9.778;2023-04-01T05:25:44;7.60;99.90
19552;DHT22;9921;47.186;9.778;2023-04-01T05:28:11;7.60;99.90
19552;DHT22;9921;47.186;9.778;2023-04-01T05:30:40;7.60;99.90
19552;DHT22;9921;47.186;9.778;2023-04-01T05:33:07;7.60;99.90
19552;DHT22;9921;47.186;9.778;2023-04-01T05:35:36;7.60;99.90
19552;DHT22;9921;47.186;9.778;2023-04-01T05:38:03;7.60;99.90
19552;DHT22;9921;47.186;9.778;2023-04-01T05:40:30;7.60;99.90
19552;DHT22;9921;47.186;9.778;2023-04-01T05:42:58;7.60;99.90
19552;DHT22;9921;47.186;9.778;2023-04-01T05:45:25;7.60;99.90
19552;DHT22;9921;47.186;9.778;2023-04-01T05:47:52;7.60;99.90
19552;DHT22;9921;47.186;9.778;2023-04-01T05:50:19;7.60;99.90
19552;DHT22;9921;47.186;9.778;2023-04-01T05:52:47;7.70;99.90
19552;DHT22;9921;47.186;9.778;2023-04-01T05:55:15;7.70;99.90
19552;DHT22;9921;47.186;9.778;2023-04-01T05:57:42;7.70;99.90
19552;DHT22;9921;47.186;9.778;2023-04-01T06:00:12;7.70;99.90
19552;DHT22;9921;47.186;9.778;2023-04-01T06:02:39;7.70;99.90
19552;DHT22;9921;47.186;9.778;2023-04-01T06:05:14;7.90;99.90
19552;DHT22;9921;47.186;9.778;2023-04-01T06:07:41;7.90;99.90
19552;DHT22;9921;47.186;9.778;2023-04-01T06:10:15;8.00;99.90
19552;DHT22;9921;47.186;9.778;2023-04-01T06:13:03;8.20;99.90
19552;DHT22;9921;47.186;9.778;2023-04-01T06:15:37;8.20;99.90
19552;DHT22;9921;47.186;9.778;2023-04-01T06:18:40;8.40;99.90
19552;DHT22;9921;47.186;9.778;2023-04-01T06:21:30;8.50;99.90
19552;DHT22;9921;47.186;9.778;2023-04-01T06:24:07;8.60;99.90
19552;DHT22;9921;47.186;9.778;2023-04-01T06:26:46;8.60;99.90
19552;DHT22;9921;47.186;9.778;2023-04-01T06:29:34;8.50;99.90
19552;DHT22;9921;47.186;9.778;2023-04-01T06:32:26;8.50;99.90
19552;DHT22;9921;47.186;9.778;2023-04-01T06:35:19;8.50;99.90
19552;DHT22;9921;47.186;9.778;2023-04-01T06:38:02;8.40;99.90
19552;DHT22;9921;47.186;9.778;2023-04-01T06:40:51;8.30;99.90
19552;DHT22;9921;47.186;9.778;2023-04-01T06:43:27;8.20;99.90
19552;DHT22;9921;47.186;9.778;2023-04-01T06:46:04;8.10;99.90
19552;DHT22;9921;47.186;9.778;2023-04-01T06:48:41;8.00;99.90
19552;DHT22;9921;47.186;9.778;2023-04-01T06:51:20;7.90;99.90
19552;DHT22;9921;47.186;9.778;2023-04-01T06:53:54;8.00;99.90
19552;DHT22;9921;47.186;9.778;2023-04-01T06:56:25;7.90;99.90
19552;DHT22;9921;47.186;9.778;2023-04-01T06:58:57;8.00;99.90
19552;DHT22;9921;47.186;9.778;2023-04-01T07:01:29;8.10;99.90
19552;DHT22;9921;47.186;9.778;2023-04-01T07:03:59;8.10;99.90
19552;DHT22;9921;47.186;9.778;2023-04-01T07:06:31;8.00;99.90
19552;DHT22;9921;47.186;9.778;2023-04-01T07:09:02;7.90;99.90
19552;DHT22;9921;47.186;9.778;2023-04-01T07:11:33;7.80;99.90
19552;DHT22;9921;47.186;9.778;2023-04-01T07:14:04;7.80;99.90
19552;DHT22;9921;47.186;9.778;2023-04-01T07:16:36;7.80;99.90
19552;DHT22;9921;47.186;9.778;2023-04-01T07:19:08;7.80;99.90
19552;DHT22;9921;47.186;9.778;2023-04-01T07:21:43;7.80;99.90
19552;DHT22;9921;47.186;9.778;2023-04-01T07:24:15;7.80;99.90
19552;DHT22;9921;47.186;9.778;2023-04-01T07:26:44;7.80;99.90
19552;DHT22;9921;47.186;9.778;2023-04-01T07:29:13;7.90;99.90
19552;DHT22;9921;47.186;9.778;2023-04-01T07:31:54;7.80;99.90
19552;DHT22;9921;47.186;9.778;2023-04-01T07:34:26;7.90;99.90
19552;DHT22;9921;47.186;9.778;2023-04-01T07:36:58;7.90;99.90
19552;DHT22;9921;47.186;9.778;2023-04-01T07:39:35;8.00;99.90
19552;DHT22;9921;47.186;9.778;2023-04-01T07:42:11;8.00;99.90
19552;DHT22;9921;47.186;9.778;2023-04-01T07:44:50;8.20;99.90
19552;DHT22;9921;47.186;9.778;2023-04-01T07:47:43;8.20;99.90
19552;DHT22;9921;47.186;9.778;2023-04-01T07:50:18;8.30;99.90
19552;DHT22;9921;47.186;9.778;2023-04-01T07:52:53;8.30;99.90
19552;DHT22;9921;47.186;9.778;2023-04-01T07:55:25;8.30;99.90
19552;DHT22;9921;47.186;9.778;2023-04-01T07:58:02;8.40;99.90
19552;DHT22;9921;47.186;9.778;2023-04-01T08:00:39;8.50;99.90
19552;DHT22;9921;47.186;9.778;2023-04-01T08:06:14;8.70;99.90
19552;DHT22;9921;47.186;9.778;2023-04-01T08:08:53;8.70;99.90
19552;DHT22;9921;47.186;9.778;2023-04-01T08:11:34;8.70;99.90
19552;DHT22;9921;47.186;9.778;2023-04-01T08:14:09;8.70;99.90
19552;DHT22;9921;47.186;9.778;2023-04-01T08:16:48;8.80;99.90
19552;DHT22;9921;47.186;9.778;2023-04-01T08:19:24;8.90;99.90
19552;DHT22;9921;47.186;9.778;2023-04-01T08:21:57;9.00;99.90
19552;DHT22;9921;47.186;9.778;2023-04-01T08:24:33;9.20;99.90
19552;DHT22;9921;47.186;9.778;2023-04-01T08:27:05;9.40;99.90
19552;DHT22;9921;47.186;9.778;2023-04-01T08:29:38;9.50;99.90
19552;DHT22;9921;47.186;9.778;2023-04-01T08:32:10;9.60;99.90
19552;DHT22;9921;47.186;9.778;2023-04-01T08:34:40;9.60;99.90
19552;DHT22;9921;47.186;9.778;2023-04-01T08:37:12;9.70;99.90
19552;DHT22;9921;47.186;9.778;2023-04-01T08:39:47;9.90;99.90
19552;DHT22;9921;47.186;9.778;2023-04-01T08:42:31;10.10;99.90
19552;DHT22;9921;47.186;9.778;2023-04-01T08:45:35;10.00;99.90
19552;DHT22;9921;47.186;9.778;2023-04-01T08:48:23;9.70;99.90
19552;DHT22;9921;47.186;9.778;2023-04-01T08:51:17;9.60;99.90
19552;DHT22;9921;47.186;9.778;2023-04-01T08:56:53;9.80;99.90
19552;DHT22;9921;47.186;9.778;2023-04-01T08:59:40;9.80;99.90
19552;DHT22;9921;47.186;9.778;2023-04-01T09:02:43;9.60;99.90
19552;DHT22;9921;47.186;9.778;2023-04-01T09:05:42;9.60;99.90
19552;DHT22;9921;47.186;9.778;2023-04-01T09:08:20;9.60;99.90
19552;DHT22;9921;47.186;9.778;2023-04-01T09:11:08;9.80;99.90
19552;DHT22;9921;47.186;9.778;2023-04-01T09:13:49;9.90;99.90
19552;DHT22;9921;47.186;9.778;2023-04-01T09:16:27;10.10;99.90
19552;DHT22;9921;47.186;9.778;2023-04-01T09:19:21;10.40;99.90
19552;DHT22;9921;47.186;9.778;2023-04-01T09:22:13;10.50;99.90
19552;DHT22;9921;47.186;9.778;2023-04-01T09:27:56;10.40;99.90
19552;DHT22;9921;47.186;9.778;2023-04-01T09:30:42;10.30;99.90
19552;DHT22;9921;47.186;9.778;2023-04-01T09:36:25;10.10;99.90
19552;DHT22;9921;47.186;9.778;2023-04-01T09:39:03;10.10;99.90
19552;DHT22;9921;47.186;9.778;2023-04-01T09:41:48;10.10;99.90
19552;DHT22;9921;47.186;9.778;2023-04-01T09:44:25;10.10;99.90
19552;DHT22;9921;47.186;9.778;2023-04-01T09:47:08;10.10;99.90
19552;DHT22;9921;47.186;9.778;2023-04-01T09:50:00;10.20;99.90
19552;DHT22;9921;47.186;9.778;2023-04-01T09:52:36;10.30;99.90
19552;DHT22;9921;47.186;9.778;2023-04-01T09:58:37;10.20;99.90
19552;DHT22;9921;47.186;9.778;2023-04-01T10:01:39;10.20;99.90
19552;DHT22;9921;47.186;9.778;2023-04-01T10:04:46;10.30;99.90
19552;DHT22;9921;47.186;9.778;2023-04-01T10:07:50;10.40;99.90
19552;DHT22;9921;47.186;9.778;2023-04-01T10:16:47;10.60;99.90
19552;DHT22;9921;47.186;9.778;2023-04-01T10:19:42;10.60;99.90
19552;DHT22;9921;47.186;9.778;2023-04-01T10:22:31;10.70;99.90
19552;DHT22;9921;47.186;9.778;2023-04-01T10:25:22;10.80;99.90
19552;DHT22;9921;47.186;9.778;2023-04-01T10:31:18;10.80;99.90
19552;DHT22;9921;47.186;9.778;2023-04-01T10:34:25;10.90;99.90
19552;DHT22;9921;47.186;9.778;2023-04-01T10:36:59;10.80;99.90
19552;DHT22;9921;47.186;9.778;2023-04-01T10:39:59;10.80;99.90
19552;DHT22;9921;47.186;9.778;2023-04-01T10:52:36;11.10;99.90
19552;DHT22;9921;47.186;9.778;2023-04-01T10:55:32;11.20;99.90
19552;DHT22;9921;47.186;9.778;2023-04-01T10:58:35;11.30;99.90
19552;DHT22;9921;47.186;9.778;2023-04-01T11:01:27;11.30;99.90
19552;DHT22;9921;47.186;9.778;2023-04-01T11:20:10;12.30;99.90
19552;DHT22;9921;47.186;9.778;2023-04-01T11:23:10;12.30;99.90
19552;DHT22;9921;47.186;9.778;2023-04-01T11:26:00;12.30;99.90
19552;DHT22;9921;47.186;9.778;2023-04-01T11:29:04;12.40;99.90
19552;DHT22;9921;47.186;9.778;2023-04-01T11:31:43;12.50;99.90
19552;DHT22;9921;47.186;9.778;2023-04-01T11:34:22;12.50;99.90
19552;DHT22;9921;47.186;9.778;2023-04-01T11:36:58;12.70;99.90
19552;DHT22;9921;47.186;9.778;2023-04-01T11:39:35;12.60;99.90
19552;DHT22;9921;47.186;9.778;2023-04-01T11:42:12;12.60;99.90
19552;DHT22;9921;47.186;9.778;2023-04-01T11:44:47;12.50;99.90
19552;DHT22;9921;47.186;9.778;2023-04-01T11:47:47;12.30;99.90
19552;DHT22;9921;47.186;9.778;2023-04-01T11:50:24;12.10;99.90
19552;DHT22;9921;47.186;9.778;2023-04-01T11:53:15;12.30;99.90
19552;DHT22;9921;47.186;9.778;2023-04-01T11:55:56;12.40;99.90
19552;DHT22;9921;47.186;9.778;2023-04-01T11:58:43;12.20;99.90
19552;DHT22;9921;47.186;9.778;2023-04-01T12:01:30;12.00;99.90
19552;DHT22;9921;47.186;9.778;2023-04-01T12:04:23;12.00;99.90
19552;DHT22;9921;47.186;9.778;2023-04-01T12:06:57;11.80;99.90
19552;DHT22;9921;47.186;9.778;2023-04-01T12:09:37;11.90;99.90
19552;DHT22;9921;47.186;9.778;2023-04-01T12:12:17;11.90;99.90
19552;DHT22;9921;47.186;9.778;2023-04-01T12:14:54;11.90;99.90
19552;DHT22;9921;47.186;9.778;2023-04-01T12:17:34;12.00;99.90
19552;DHT22;9921;47.186;9.778;2023-04-01T12:20:22;12.20;99.90
19552;DHT22;9921;47.186;9.778;2023-04-01T12:23:02;12.30;99.90
19552;DHT22;9921;47.186;9.778;2023-04-01T12:26:00;12.40;99.90
19552;DHT22;9921;47.186;9.778;2023-04-01T12:28:41;12.40;99.90
19552;DHT22;9921;47.186;9.778;2023-04-01T12:31:27;12.40;99.90
19552;DHT22;9921;47.186;9.778;2023-04-01T12:37:06;12.20;99.90
19552;DHT22;9921;47.186;9.778;2023-04-01T12:39:48;12.30;99.90
19552;DHT22;9921;47.186;9.778;2023-04-01T12:42:31;12.50;99.90
19552;DHT22;9921;47.186;9.778;2023-04-01T12:45:20;12.50;99.90
19552;DHT22;9921;47.186;9.778;2023-04-01T12:48:18;12.60;99.90
19552;DHT22;9921;47.186;9.778;2023-04-01T12:57:07;12.70;99.90
19552;DHT22;9921;47.186;9.778;2023-04-01T12:59:54;12.60;99.90
19552;DHT22;9921;47.186;9.778;2023-04-01T13:02:37;12.70;99.90
19552;DHT22;9921;47.186;9.778;2023-04-01T13:05:25;12.70;99.90
19552;DHT22;9921;47.186;9.778;2023-04-01T13:08:17;12.60;99.90
19552;DHT22;9921;47.186;9.778;2023-04-01T13:11:02;12.60;99.90
19552;DHT22;9921;47.186;9.778;2023-04-01T13:16:40;12.80;99.90
19552;DHT22;9921;47.186;9.778;2023-04-01T13:19:14;12.90;99.90
19552;DHT22;9921;47.186;9.778;2023-04-01T13:21:51;12.90;99.90
19552;DHT22;9921;47.186;9.778;2023-04-01T13:24:36;12.60;99.90
19552;DHT22;9921;47.186;9.778;2023-04-01T13:27:12;12.60;99.90
19552;DHT22;9921;47.186;9.778;2023-04-01T13:29:44;12.50;99.90
19552;DHT22;9921;47.186;9.778;2023-04-01T13:32:31;12.60;99.90
19552;DHT22;9921;47.186;9.778;2023-04-01T13:35:10;12.70;99.90
19552;DHT22;9921;47.186;9.778;2023-04-01T13:37:52;12.80;99.90
19552;DHT22;9921;47.186;9.778;2023-04-01T13:40:36;13.20;99.90
19552;DHT22;9921;47.186;9.778;2023-04-01T13:43:14;13.40;99.90
19552;DHT22;9921;47.186;9.778;2023-04-01T13:46:06;13.40;99.90
19552;DHT22;9921;47.186;9.778;2023-04-01T13:49:20;13.20;99.90
19552;DHT22;9921;47.186;9.778;2023-04-01T13:55:14;13.50;99.90
19552;DHT22;9921;47.186;9.778;2023-04-01T13:57:58;13.60;99.90
19552;DHT22;9921;47.186;9.778;2023-04-01T14:00:42;13.60;99.90
19552;DHT22;9921;47.186;9.778;2023-04-01T14:03:27;13.50;99.90
19552;DHT22;9921;47.186;9.778;2023-04-01T14:06:14;13.30;99.90
19552;DHT22;9921;47.186;9.778;2023-04-01T14:09:03;13.20;99.90
19552;DHT22;9921;47.186;9.778;2023-04-01T14:11:36;13.10;99.90
19552;DHT22;9921;47.186;9.778;2023-04-01T14:14:11;12.90;99.90
19552;DHT22;9921;47.186;9.778;2023-04-01T14:17:03;12.70;99.90
19552;DHT22;9921;47.186;9.778;2023-04-01T14:19:45;12.60;99.90
19552;DHT22;9921;47.186;9.778;2023-04-01T14:22:25;12.50;99.90
19552;DHT22;9921;47.186;9.778;2023-04-01T14:25:22;12.60;99.90
19552;DHT22;9921;47.186;9.778;2023-04-01T14:27:59;12.60;99.90
19552;DHT22;9921;47.186;9.778;2023-04-01T14:30:51;12.50;99.90
19552;DHT22;9921;47.186;9.778;2023-04-01T14:33:34;12.50;99.90
19552;DHT22;9921;47.186;9.778;2023-04-01T14:39:19;12.30;99.90
19552;DHT22;9921;47.186;9.778;2023-04-01T14:41:57;12.00;99.90
19552;DHT22;9921;47.186;9.778;2023-04-01T14:47:34;11.60;99.90
19552;DHT22;9921;47.186;9.778;2023-04-01T14:50:12;11.70;99.90
19552;DHT22;9921;47.186;9.778;2023-04-01T14:52:42;11.70;99.90
19552;DHT22;9921;47.186;9.778;2023-04-01T14:55:31;11.60;99.90
19552;DHT22;9921;47.186;9.778;2023-04-01T14:58:04;11.70;99.90
19552;DHT22;9921;47.186;9.778;2023-04-01T15:00:46;11.90;99.90
19552;DHT22;9921;47.186;9.778;2023-04-01T15:03:19;12.10;99.90
19552;DHT22;9921;47.186;9.778;2023-04-01T15:05:51;12.20;99.90
19552;DHT22;9921;47.186;9.778;2023-04-01T15:08:21;12.20;99.90
19552;DHT22;9921;47.186;9.778;2023-04-01T15:11:16;12.10;99.90
19552;DHT22;9921;47.186;9.778;2023-04-01T15:14:16;12.20;99.90
19552;DHT22;9921;47.186;9.778;2023-04-01T15:16:53;12.40;99.90
19552;DHT22;9921;47.186;9.778;2023-04-01T15:19:31;12.70;99.90
19552;DHT22;9921;47.186;9.778;2023-04-01T15:22:18;12.80;99.90
19552;DHT22;9921;47.186;9.778;2023-04-01T15:25:01;12.90;99.90
19552;DHT22;9921;47.186;9.778;2023-04-01T15:27:38;13.00;99.90
19552;DHT22;9921;47.186;9.778;2023-04-01T15:30:33;13.00;99.90
19552;DHT22;9921;47.186;9.778;2023-04-01T15:33:14;13.00;99.90
19552;DHT22;9921;47.186;9.778;2023-04-01T15:35:49;12.60;99.90
19552;DHT22;9921;47.186;9.778;2023-04-01T15:38:27;12.30;99.90
19552;DHT22;9921;47.186;9.778;2023-04-01T15:41:02;12.20;99.90
19552;DHT22;9921;47.186;9.778;2023-04-01T15:43:40;12.20;99.90
19552;DHT22;9921;47.186;9.778;2023-04-01T15:46:43;12.30;99.90
19552;DHT22;9921;47.186;9.778;2023-04-01T15:49:27;12.40;99.90
19552;DHT22;9921;47.186;9.778;2023-04-01T15:52:03;12.40;99.90
19552;DHT22;9921;47.186;9.778;2023-04-01T15:54:53;12.40;99.90
19552;DHT22;9921;47.186;9.778;2023-04-01T15:57:33;12.40;99.90
19552;DHT22;9921;47.186;9.778;2023-04-01T16:00:22;12.40;99.90
19552;DHT22;9921;47.186;9.778;2023-04-01T16:03:00;12.40;99.90
19552;DHT22;9921;47.186;9.778;2023-04-01T16:05:39;12.50;99.90
19552;DHT22;9921;47.186;9.778;2023-04-01T16:08:16;12.50;99.90
19552;DHT22;9921;47.186;9.778;2023-04-01T16:10:55;12.50;99.90
19552;DHT22;9921;47.186;9.778;2023-04-01T16:13:42;12.50;99.90
19552;DHT22;9921;47.186;9.778;2023-04-01T16:16:23;12.40;99.90
19552;DHT22;9921;47.186;9.778;2023-04-01T16:19:05;12.30;99.90
19552;DHT22;9921;47.186;9.778;2023-04-01T16:21:38;12.30;99.90
19552;DHT22;9921;47.186;9.778;2023-04-01T16:24:20;12.30;99.90
19552;DHT22;9921;47.186;9.778;2023-04-01T16:26:54;12.40;99.90
19552;DHT22;9921;47.186;9.778;2023-04-01T16:29:28;12.40;99.90
19552;DHT22;9921;47.186;9.778;2023-04-01T16:32:14;12.40;99.90
19552;DHT22;9921;47.186;9.778;2023-04-01T16:34:45;12.30;99.90
19552;DHT22;9921;47.186;9.778;2023-04-01T16:37:17;12.20;99.90
19552;DHT22;9921;47.186;9.778;2023-04-01T16:39:52;12.20;99.90
19552;DHT22;9921;47.186;9.778;2023-04-01T16:42:30;12.20;99.90
19552;DHT22;9921;47.186;9.778;2023-04-01T16:45:01;12.10;99.90
19552;DHT22;9921;47.186;9.778;2023-04-01T16:47:40;12.10;99.90
19552;DHT22;9921;47.186;9.778;2023-04-01T16:50:14;12.00;99.90
19552;DHT22;9921;47.186;9.778;2023-04-01T16:52:56;11.80;99.90
19552;DHT22;9921;47.186;9.778;2023-04-01T16:55:34;11.50;99.90
19552;DHT22;9921;47.186;9.778;2023-04-01T16:58:02;11.20;99.90
19552;DHT22;9921;47.186;9.778;2023-04-01T17:00:37;11.00;99.90
19552;DHT22;9921;47.186;9.778;2023-04-01T17:03:11;10.80;99.90
19552;DHT22;9921;47.186;9.778;2023-04-01T17:05:54;10.60;99.90
19552;DHT22;9921;47.186;9.778;2023-04-01T17:08:31;10.60;99.90
19552;DHT22;9921;47.186;9.778;2023-04-01T17:11:05;10.60;99.90
19552;DHT22;9921;47.186;9.778;2023-04-01T17:13:40;10.60;99.90
19552;DHT22;9921;47.186;9.778;2023-04-01T17:16:34;10.60;99.90
19552;DHT22;9921;47.186;9.778;2023-04-01T17:19:13;10.50;99.90
19552;DHT22;9921;47.186;9.778;2023-04-01T17:21:56;10.20;99.90
19552;DHT22;9921;47.186;9.778;2023-04-01T17:24:35;10.00;99.90
19552;DHT22;9921;47.186;9.778;2023-04-01T17:27:17;9.90;99.90
19552;DHT22;9921;47.186;9.778;2023-04-01T17:30:02;9.90;99.90
19552;DHT22;9921;47.186;9.778;2023-04-01T17:32:39;9.90;99.90
19552;DHT22;9921;47.186;9.778;2023-04-01T17:35:17;9.90;99.90
19552;DHT22;9921;47.186;9.778;2023-04-01T17:37:54;10.00;99.90
19552;DHT22;9921;47.186;9.778;2023-04-01T17:40:35;10.00;99.90
19552;DHT22;9921;47.186;9.778;2023-04-01T17:43:13;10.00;99.90
19552;DHT22;9921;47.186;9.778;2023-04-01T17:45:46;10.00;99.90
19552;DHT22;9921;47.186;9.778;2023-04-01T17:48:24;9.90;99.90
19552;DHT22;9921;47.186;9.778;2023-04-01T17:51:11;9.70;99.90
19552;DHT22;9921;47.186;9.778;2023-04-01T17:53:47;9.50;99.90
19552;DHT22;9921;47.186;9.778;2023-04-01T17:56:32;9.50;99.90
19552;DHT22;9921;47.186;9.778;2023-04-01T17:59:06;9.50;99.90
19552;DHT22;9921;47.186;9.778;2023-04-01T18:01:45;9.50;99.90
19552;DHT22;9921;47.186;9.778;2023-04-01T18:04:46;9.30;99.90
19552;DHT22;9921;47.186;9.778;2023-04-01T18:07:45;9.20;99.90
19552;DHT22;9921;47.186;9.778;2023-04-01T18:10:25;9.00;99.90
19552;DHT22;9921;47.186;9.778;2023-04-01T18:13:16;9.00;99.90